sensor_id;sensor_type;location;lat;lon;timestamp;P1;durP1;ratioP1;P2;durP2;ratioP2
76107;SDS011;64834;52.516;10.528;2022-12-22T00:01:29;5.22;;;3.15;;
76107;SDS011;64834;52.516;10.528;2022-12-22T00:04:13;6.25;;;4.00;;
76107;SDS011;64834;52.516;10.528;2022-12-22T00:06:57;7.05;;;3.28;;
76107;SDS011;64834;52.516;10.528;2022-12-22T00:09:41;6.18;;;3.50;;
76107;SDS011;64834;52.516;10.528;2022-12-22T00:12:25;6.60;;;3.80;;
76107;SDS011;64834;52.516;10.528;2022-12-22T00:15:12;7.13;;;3.45;;
76107;SDS011;64834;52.516;10.528;2022-12-22T00:17:58;5.90;;;3.50;;
76107;SDS011;64834;52.516;10.528;2022-12-22T00:20:43;5.22;;;3.40;;
76107;SDS011;64834;52.516;10.528;2022-12-22T00:23:27;6.00;;;3.60;;
76107;SDS011;64834;52.516;10.528;2022-12-22T00:26:10;8.48;;;3.53;;
76107;SDS011;64834;52.516;10.528;2022-12-22T00:28:54;6.95;;;3.65;;
76107;SDS011;64834;52.516;10.528;2022-12-22T00:31:39;6.07;;;3.60;;
76107;SDS011;64834;52.516;10.528;2022-12-22T00:34:24;6.97;;;3.88;;
76107;SDS011;64834;52.516;10.528;2022-12-22T00:37:13;5.90;;;4.47;;
76107;SDS011;64834;52.516;10.528;2022-12-22T00:39:58;8.10;;;5.97;;
76107;SDS011;64834;52.516;10.528;2022-12-22T00:42:43;6.03;;;4.30;;
76107;SDS011;64834;52.516;10.528;2022-12-22T00:45:27;5.18;;;3.47;;
76107;SDS011;64834;52.516;10.528;2022-12-22T00:48:19;9.88;;;3.88;;
76107;SDS011;64834;52.516;10.528;2022-12-22T00:51:05;9.15;;;4.82;;
76107;SDS011;64834;52.516;10.528;2022-12-22T00:53:49;9.95;;;4.35;;
76107;SDS011;64834;52.516;10.528;2022-12-22T00:56:33;6.95;;;4.13;;
76107;SDS011;64834;52.516;10.528;2022-12-22T00:59:17;7.70;;;4.47;;
76107;SDS011;64834;52.516;10.528;2022-12-22T01:02:01;6.80;;;4.00;;
76107;SDS011;64834;52.516;10.528;2022-12-22T01:04:45;6.32;;;3.88;;
76107;SDS011;64834;52.516;10.528;2022-12-22T01:07:29;6.63;;;4.18;;
76107;SDS011;64834;52.516;10.528;2022-12-22T01:10:13;6.18;;;4.15;;
76107;SDS011;64834;52.516;10.528;2022-12-22T01:12:57;7.03;;;3.92;;
76107;SDS011;64834;52.516;10.528;2022-12-22T01:15:41;8.18;;;4.15;;
76107;SDS011;64834;52.516;10.528;2022-12-22T01:18:25;8.15;;;4.53;;
76107;SDS011;64834;52.516;10.528;2022-12-22T01:21:09;7.80;;;4.32;;
76107;SDS011;64834;52.516;10.528;2022-12-22T01:23:53;8.40;;;4.90;;
76107;SDS011;64834;52.516;10.528;2022-12-22T01:26:37;9.80;;;4.55;;
76107;SDS011;64834;52.516;10.528;2022-12-22T01:29:21;9.80;;;4.70;;
76107;SDS011;64834;52.516;10.528;2022-12-22T01:32:04;7.13;;;4.57;;
76107;SDS011;64834;52.516;10.528;2022-12-22T01:34:48;8.13;;;4.35;;
76107;SDS011;64834;52.516;10.528;2022-12-22T01:37:32;6.60;;;4.22;;
76107;SDS011;64834;52.516;10.528;2022-12-22T01:40:17;10.93;;;4.57;;
76107;SDS011;64834;52.516;10.528;2022-12-22T01:43:23;7.60;;;4.90;;
76107;SDS011;64834;52.516;10.528;2022-12-22T01:49:14;6.90;;;4.40;;
76107;SDS011;64834;52.516;10.528;2022-12-22T01:52:03;7.80;;;4.80;;
76107;SDS011;64834;52.516;10.528;2022-12-22T01:54:49;8.43;;;5.93;;
76107;SDS011;64834;52.516;10.528;2022-12-22T01:57:33;9.88;;;4.90;;
76107;SDS011;64834;52.516;10.528;2022-12-22T02:00:17;8.38;;;4.72;;
76107;SDS011;64834;52.516;10.528;2022-12-22T02:03:02;8.88;;;5.30;;
76107;SDS011;64834;52.516;10.528;2022-12-22T02:05:52;9.20;;;5.00;;
76107;SDS011;64834;52.516;10.528;2022-12-22T02:08:48;10.20;;;4.82;;
76107;SDS011;64834;52.516;10.528;2022-12-22T02:11:52;8.40;;;5.15;;
76107;SDS011;64834;52.516;10.528;2022-12-22T02:18:00;7.63;;;4.75;;
76107;SDS011;64834;52.516;10.528;2022-12-22T02:20:51;9.38;;;4.63;;
76107;SDS011;64834;52.516;10.528;2022-12-22T02:26:37;10.52;;;4.53;;
76107;SDS011;64834;52.516;10.528;2022-12-22T02:29:27;8.38;;;4.38;;
76107;SDS011;64834;52.516;10.528;2022-12-22T02:32:13;7.53;;;4.20;;
76107;SDS011;64834;52.516;10.528;2022-12-22T02:34:57;7.15;;;4.20;;
76107;SDS011;64834;52.516;10.528;2022-12-22T02:37:44;7.38;;;4.35;;
76107;SDS011;64834;52.516;10.528;2022-12-22T02:40:49;5.78;;;3.80;;
76107;SDS011;64834;52.516;10.528;2022-12-22T02:43:52;9.65;;;4.70;;
76107;SDS011;64834;52.516;10.528;2022-12-22T02:46:59;7.55;;;4.15;;
76107;SDS011;64834;52.516;10.528;2022-12-22T02:49:54;7.13;;;4.32;;
76107;SDS011;64834;52.516;10.528;2022-12-22T02:52:42;9.40;;;4.90;;
76107;SDS011;64834;52.516;10.528;2022-12-22T02:55:28;6.15;;;4.25;;
76107;SDS011;64834;52.516;10.528;2022-12-22T02:58:13;7.35;;;4.13;;
76107;SDS011;64834;52.516;10.528;2022-12-22T03:00:58;9.00;;;4.45;;
76107;SDS011;64834;52.516;10.528;2022-12-22T03:03:42;7.28;;;6.18;;
76107;SDS011;64834;52.516;10.528;2022-12-22T03:06:26;8.00;;;4.82;;
76107;SDS011;64834;52.516;10.528;2022-12-22T03:09:10;6.13;;;4.40;;
76107;SDS011;64834;52.516;10.528;2022-12-22T03:11:53;7.93;;;4.50;;
76107;SDS011;64834;52.516;10.528;2022-12-22T03:14:37;7.85;;;4.70;;
76107;SDS011;64834;52.516;10.528;2022-12-22T03:17:21;6.90;;;4.53;;
76107;SDS011;64834;52.516;10.528;2022-12-22T03:20:05;6.93;;;4.53;;
76107;SDS011;64834;52.516;10.528;2022-12-22T03:22:49;9.32;;;4.57;;
76107;SDS011;64834;52.516;10.528;2022-12-22T03:25:33;7.85;;;4.43;;
76107;SDS011;64834;52.516;10.528;2022-12-22T03:28:18;7.57;;;4.72;;
76107;SDS011;64834;52.516;10.528;2022-12-22T03:30:45;9.63;;;5.25;;
76107;SDS011;64834;52.516;10.528;2022-12-22T03:33:17;8.82;;;4.80;;
76107;SDS011;64834;52.516;10.528;2022-12-22T03:35:43;8.07;;;4.97;;
76107;SDS011;64834;52.516;10.528;2022-12-22T03:38:08;8.57;;;5.10;;
76107;SDS011;64834;52.516;10.528;2022-12-22T03:40:33;6.97;;;4.43;;
76107;SDS011;64834;52.516;10.528;2022-12-22T03:42:59;7.47;;;4.68;;
76107;SDS011;64834;52.516;10.528;2022-12-22T03:45:42;7.93;;;4.72;;
76107;SDS011;64834;52.516;10.528;2022-12-22T03:48:26;8.00;;;5.35;;
76107;SDS011;64834;52.516;10.528;2022-12-22T03:50:51;7.10;;;4.70;;
76107;SDS011;64834;52.516;10.528;2022-12-22T03:53:17;6.97;;;4.75;;
76107;SDS011;64834;52.516;10.528;2022-12-22T03:55:42;7.57;;;4.78;;
76107;SDS011;64834;52.516;10.528;2022-12-22T03:58:07;8.93;;;4.78;;
76107;SDS011;64834;52.516;10.528;2022-12-22T04:00:33;8.95;;;5.13;;
76107;SDS011;64834;52.516;10.528;2022-12-22T04:02:58;6.82;;;4.68;;
76107;SDS011;64834;52.516;10.528;2022-12-22T04:05:24;7.72;;;4.95;;
76107;SDS011;64834;52.516;10.528;2022-12-22T04:07:49;7.13;;;4.32;;
76107;SDS011;64834;52.516;10.528;2022-12-22T04:10:14;8.82;;;5.35;;
76107;SDS011;64834;52.516;10.528;2022-12-22T04:12:58;7.55;;;4.80;;
76107;SDS011;64834;52.516;10.528;2022-12-22T04:15:25;8.55;;;5.03;;
76107;SDS011;64834;52.516;10.528;2022-12-22T04:17:52;7.78;;;4.72;;
76107;SDS011;64834;52.516;10.528;2022-12-22T04:20:18;6.63;;;4.88;;
76107;SDS011;64834;52.516;10.528;2022-12-22T04:22:45;9.20;;;5.35;;
76107;SDS011;64834;52.516;10.528;2022-12-22T04:25:11;8.90;;;5.00;;
76107;SDS011;64834;52.516;10.528;2022-12-22T04:27:37;8.52;;;5.10;;
76107;SDS011;64834;52.516;10.528;2022-12-22T04:30:03;8.60;;;4.97;;
76107;SDS011;64834;52.516;10.528;2022-12-22T04:32:30;7.95;;;4.97;;
76107;SDS011;64834;52.516;10.528;2022-12-22T04:34:55;7.50;;;4.93;;
76107;SDS011;64834;52.516;10.528;2022-12-22T04:37:20;6.93;;;4.57;;
76107;SDS011;64834;52.516;10.528;2022-12-22T04:39:46;8.73;;;5.88;;
76107;SDS011;64834;52.516;10.528;2022-12-22T04:42:11;8.15;;;5.03;;
76107;SDS011;64834;52.516;10.528;2022-12-22T04:44:36;7.88;;;5.30;;
76107;SDS011;64834;52.516;10.528;2022-12-22T04:47:02;9.75;;;5.78;;
76107;SDS011;64834;52.516;10.528;2022-12-22T04:49:27;9.18;;;5.80;;
76107;SDS011;64834;52.516;10.528;2022-12-22T04:51:52;10.55;;;5.00;;
76107;SDS011;64834;52.516;10.528;2022-12-22T04:54:18;7.80;;;4.95;;
76107;SDS011;64834;52.516;10.528;2022-12-22T04:56:43;10.05;;;5.90;;
76107;SDS011;64834;52.516;10.528;2022-12-22T04:59:08;8.32;;;5.38;;
76107;SDS011;64834;52.516;10.528;2022-12-22T05:01:34;9.60;;;5.68;;
76107;SDS011;64834;52.516;10.528;2022-12-22T05:03:59;8.77;;;5.22;;
76107;SDS011;64834;52.516;10.528;2022-12-22T05:06:24;9.50;;;5.50;;
76107;SDS011;64834;52.516;10.528;2022-12-22T05:08:50;11.75;;;5.30;;
76107;SDS011;64834;52.516;10.528;2022-12-22T05:11:15;9.85;;;6.07;;
76107;SDS011;64834;52.516;10.528;2022-12-22T05:13:40;9.88;;;5.45;;
76107;SDS011;64834;52.516;10.528;2022-12-22T05:16:07;10.43;;;5.85;;
76107;SDS011;64834;52.516;10.528;2022-12-22T05:18:34;10.52;;;5.88;;
76107;SDS011;64834;52.516;10.528;2022-12-22T05:21:01;10.00;;;5.75;;
76107;SDS011;64834;52.516;10.528;2022-12-22T05:23:36;10.70;;;6.55;;
76107;SDS011;64834;52.516;10.528;2022-12-22T05:26:02;10.90;;;6.50;;
76107;SDS011;64834;52.516;10.528;2022-12-22T05:28:27;10.63;;;6.18;;
76107;SDS011;64834;52.516;10.528;2022-12-22T05:30:53;10.20;;;6.45;;
76107;SDS011;64834;52.516;10.528;2022-12-22T05:33:19;10.65;;;6.30;;
76107;SDS011;64834;52.516;10.528;2022-12-22T05:35:45;9.15;;;5.57;;
76107;SDS011;64834;52.516;10.528;2022-12-22T05:38:10;9.80;;;6.07;;
76107;SDS011;64834;52.516;10.528;2022-12-22T05:40:35;9.57;;;6.15;;
76107;SDS011;64834;52.516;10.528;2022-12-22T05:43:01;9.98;;;6.45;;
76107;SDS011;64834;52.516;10.528;2022-12-22T05:45:26;10.05;;;6.30;;
76107;SDS011;64834;52.516;10.528;2022-12-22T05:47:51;11.10;;;5.75;;
76107;SDS011;64834;52.516;10.528;2022-12-22T05:50:18;11.60;;;6.50;;
76107;SDS011;64834;52.516;10.528;2022-12-22T05:52:46;9.25;;;5.80;;
76107;SDS011;64834;52.516;10.528;2022-12-22T05:55:12;10.50;;;6.38;;
76107;SDS011;64834;52.516;10.528;2022-12-22T05:57:38;12.57;;;6.85;;
76107;SDS011;64834;52.516;10.528;2022-12-22T06:00:04;13.07;;;7.35;;
76107;SDS011;64834;52.516;10.528;2022-12-22T06:02:31;15.30;;;9.05;;
76107;SDS011;64834;52.516;10.528;2022-12-22T06:04:57;17.52;;;9.82;;
76107;SDS011;64834;52.516;10.528;2022-12-22T06:07:22;20.05;;;11.07;;
76107;SDS011;64834;52.516;10.528;2022-12-22T06:09:47;25.60;;;14.57;;
76107;SDS011;64834;52.516;10.528;2022-12-22T06:12:12;32.67;;;16.92;;
76107;SDS011;64834;52.516;10.528;2022-12-22T06:14:38;36.80;;;19.75;;
76107;SDS011;64834;52.516;10.528;2022-12-22T06:17:03;35.72;;;18.73;;
76107;SDS011;64834;52.516;10.528;2022-12-22T06:19:29;37.25;;;21.40;;
76107;SDS011;64834;52.516;10.528;2022-12-22T06:21:54;40.25;;;21.05;;
76107;SDS011;64834;52.516;10.528;2022-12-22T06:24:19;37.45;;;20.80;;
76107;SDS011;64834;52.516;10.528;2022-12-22T06:26:45;33.47;;;17.55;;
76107;SDS011;64834;52.516;10.528;2022-12-22T06:29:10;36.05;;;19.67;;
76107;SDS011;64834;52.516;10.528;2022-12-22T06:31:35;31.15;;;16.17;;
76107;SDS011;64834;52.516;10.528;2022-12-22T06:34:01;30.25;;;16.17;;
76107;SDS011;64834;52.516;10.528;2022-12-22T06:36:26;27.38;;;14.60;;
76107;SDS011;64834;52.516;10.528;2022-12-22T06:38:51;29.60;;;16.77;;
76107;SDS011;64834;52.516;10.528;2022-12-22T06:41:17;35.88;;;18.25;;
76107;SDS011;64834;52.516;10.528;2022-12-22T06:44:02;36.22;;;19.02;;
76107;SDS011;64834;52.516;10.528;2022-12-22T06:46:27;43.35;;;22.48;;
76107;SDS011;64834;52.516;10.528;2022-12-22T06:48:53;47.47;;;23.85;;
76107;SDS011;64834;52.516;10.528;2022-12-22T06:51:18;46.20;;;24.67;;
76107;SDS011;64834;52.516;10.528;2022-12-22T06:53:43;50.60;;;23.80;;
76107;SDS011;64834;52.516;10.528;2022-12-22T06:56:08;43.92;;;22.50;;
76107;SDS011;64834;52.516;10.528;2022-12-22T06:58:34;42.60;;;22.70;;
76107;SDS011;64834;52.516;10.528;2022-12-22T07:00:59;40.17;;;20.80;;
76107;SDS011;64834;52.516;10.528;2022-12-22T07:03:24;40.50;;;22.70;;
76107;SDS011;64834;52.516;10.528;2022-12-22T07:05:50;42.72;;;21.45;;
76107;SDS011;64834;52.516;10.528;2022-12-22T07:08:15;39.20;;;21.65;;
76107;SDS011;64834;52.516;10.528;2022-12-22T07:10:40;38.40;;;21.45;;
76107;SDS011;64834;52.516;10.528;2022-12-22T07:13:24;41.28;;;22.67;;
76107;SDS011;64834;52.516;10.528;2022-12-22T07:16:00;37.97;;;20.45;;
76107;SDS011;64834;52.516;10.528;2022-12-22T07:18:27;38.40;;;20.35;;
76107;SDS011;64834;52.516;10.528;2022-12-22T07:20:54;33.03;;;17.40;;
76107;SDS011;64834;52.516;10.528;2022-12-22T07:23:19;23.38;;;14.05;;
76107;SDS011;64834;52.516;10.528;2022-12-22T07:25:44;21.98;;;12.43;;
76107;SDS011;64834;52.516;10.528;2022-12-22T07:28:10;18.48;;;10.63;;
76107;SDS011;64834;52.516;10.528;2022-12-22T07:30:35;19.40;;;9.48;;
76107;SDS011;64834;52.516;10.528;2022-12-22T07:33:01;18.38;;;10.35;;
76107;SDS011;64834;52.516;10.528;2022-12-22T07:35:27;14.02;;;8.80;;
76107;SDS011;64834;52.516;10.528;2022-12-22T07:37:53;15.43;;;9.68;;
76107;SDS011;64834;52.516;10.528;2022-12-22T07:40:18;14.85;;;9.02;;
76107;SDS011;64834;52.516;10.528;2022-12-22T07:42:43;14.30;;;8.60;;
76107;SDS011;64834;52.516;10.528;2022-12-22T07:45:12;12.25;;;7.70;;
76107;SDS011;64834;52.516;10.528;2022-12-22T07:47:39;17.15;;;9.00;;
76107;SDS011;64834;52.516;10.528;2022-12-22T07:50:05;14.48;;;8.15;;
76107;SDS011;64834;52.516;10.528;2022-12-22T07:52:50;14.00;;;8.43;;
76107;SDS011;64834;52.516;10.528;2022-12-22T07:55:16;16.08;;;8.85;;
76107;SDS011;64834;52.516;10.528;2022-12-22T07:57:42;18.35;;;9.63;;
76107;SDS011;64834;52.516;10.528;2022-12-22T08:00:08;15.95;;;9.60;;
76107;SDS011;64834;52.516;10.528;2022-12-22T08:02:34;19.88;;;11.48;;
76107;SDS011;64834;52.516;10.528;2022-12-22T08:04:59;19.85;;;10.93;;
76107;SDS011;64834;52.516;10.528;2022-12-22T08:07:25;23.15;;;13.48;;
76107;SDS011;64834;52.516;10.528;2022-12-22T08:09:50;23.50;;;13.80;;
76107;SDS011;64834;52.516;10.528;2022-12-22T08:12:15;24.20;;;13.35;;
76107;SDS011;64834;52.516;10.528;2022-12-22T08:14:41;28.83;;;16.40;;
76107;SDS011;64834;52.516;10.528;2022-12-22T08:17:09;32.60;;;17.13;;
76107;SDS011;64834;52.516;10.528;2022-12-22T08:19:37;32.53;;;19.67;;
76107;SDS011;64834;52.516;10.528;2022-12-22T08:22:03;37.33;;;20.05;;
76107;SDS011;64834;52.516;10.528;2022-12-22T08:24:28;36.28;;;19.88;;
76107;SDS011;64834;52.516;10.528;2022-12-22T08:26:55;38.42;;;21.42;;
76107;SDS011;64834;52.516;10.528;2022-12-22T08:29:34;39.22;;;20.02;;
76107;SDS011;64834;52.516;10.528;2022-12-22T08:32:03;28.75;;;16.15;;
76107;SDS011;64834;52.516;10.528;2022-12-22T08:34:28;29.90;;;17.05;;
76107;SDS011;64834;52.516;10.528;2022-12-22T08:36:55;29.98;;;17.17;;
76107;SDS011;64834;52.516;10.528;2022-12-22T08:39:24;30.13;;;14.80;;
76107;SDS011;64834;52.516;10.528;2022-12-22T08:41:52;22.73;;;12.70;;
76107;SDS011;64834;52.516;10.528;2022-12-22T08:44:25;25.35;;;13.80;;
76107;SDS011;64834;52.516;10.528;2022-12-22T08:46:53;24.92;;;13.13;;
76107;SDS011;64834;52.516;10.528;2022-12-22T08:49:20;26.73;;;13.98;;
76107;SDS011;64834;52.516;10.528;2022-12-22T08:51:46;24.05;;;13.73;;
76107;SDS011;64834;52.516;10.528;2022-12-22T08:54:12;22.92;;;11.95;;
76107;SDS011;64834;52.516;10.528;2022-12-22T08:56:38;21.73;;;12.10;;
76107;SDS011;64834;52.516;10.528;2022-12-22T08:59:03;16.42;;;10.02;;
76107;SDS011;64834;52.516;10.528;2022-12-22T09:01:32;20.15;;;11.50;;
76107;SDS011;64834;52.516;10.528;2022-12-22T09:04:00;17.15;;;10.27;;
76107;SDS011;64834;52.516;10.528;2022-12-22T09:06:25;19.73;;;10.90;;
76107;SDS011;64834;52.516;10.528;2022-12-22T09:08:58;23.25;;;11.68;;
76107;SDS011;64834;52.516;10.528;2022-12-22T09:11:25;19.42;;;10.40;;
76107;SDS011;64834;52.516;10.528;2022-12-22T09:13:55;18.20;;;10.77;;
76107;SDS011;64834;52.516;10.528;2022-12-22T09:16:22;17.15;;;9.43;;
76107;SDS011;64834;52.516;10.528;2022-12-22T09:18:49;17.52;;;9.93;;
76107;SDS011;64834;52.516;10.528;2022-12-22T09:21:15;18.52;;;10.70;;
76107;SDS011;64834;52.516;10.528;2022-12-22T09:23:40;19.55;;;10.82;;
76107;SDS011;64834;52.516;10.528;2022-12-22T09:26:10;21.85;;;11.40;;
76107;SDS011;64834;52.516;10.528;2022-12-22T09:28:37;15.55;;;10.20;;
76107;SDS011;64834;52.516;10.528;2022-12-22T09:31:03;18.55;;;9.63;;
76107;SDS011;64834;52.516;10.528;2022-12-22T09:33:29;14.85;;;9.25;;
76107;SDS011;64834;52.516;10.528;2022-12-22T09:35:54;14.60;;;8.18;;
76107;SDS011;64834;52.516;10.528;2022-12-22T09:38:20;14.07;;;8.27;;
76107;SDS011;64834;52.516;10.528;2022-12-22T09:40:46;16.20;;;8.75;;
76107;SDS011;64834;52.516;10.528;2022-12-22T09:43:12;11.93;;;8.20;;
76107;SDS011;64834;52.516;10.528;2022-12-22T09:45:41;15.60;;;9.00;;
76107;SDS011;64834;52.516;10.528;2022-12-22T09:48:07;16.60;;;8.70;;
76107;SDS011;64834;52.516;10.528;2022-12-22T09:50:36;14.70;;;8.60;;
76107;SDS011;64834;52.516;10.528;2022-12-22T09:53:03;14.80;;;9.05;;
76107;SDS011;64834;52.516;10.528;2022-12-22T09:58:16;12.73;;;7.20;;
76107;SDS011;64834;52.516;10.528;2022-12-22T10:00:50;9.43;;;5.72;;
76107;SDS011;64834;52.516;10.528;2022-12-22T10:03:26;10.43;;;5.88;;
76107;SDS011;64834;52.516;10.528;2022-12-22T10:06:04;9.82;;;5.28;;
76107;SDS011;64834;52.516;10.528;2022-12-22T10:08:37;11.13;;;6.03;;
76107;SDS011;64834;52.516;10.528;2022-12-22T10:11:04;14.15;;;6.55;;
76107;SDS011;64834;52.516;10.528;2022-12-22T10:13:30;10.80;;;6.50;;
76107;SDS011;64834;52.516;10.528;2022-12-22T10:15:55;22.13;;;6.78;;
76107;SDS011;64834;52.516;10.528;2022-12-22T10:18:23;20.40;;;6.63;;
76107;SDS011;64834;52.516;10.528;2022-12-22T10:23:45;14.02;;;7.60;;
76107;SDS011;64834;52.516;10.528;2022-12-22T10:26:13;23.20;;;7.95;;
76107;SDS011;64834;52.516;10.528;2022-12-22T10:28:46;24.65;;;8.73;;
76107;SDS011;64834;52.516;10.528;2022-12-22T10:31:21;20.50;;;8.35;;
76107;SDS011;64834;52.516;10.528;2022-12-22T10:33:52;22.17;;;7.97;;
76107;SDS011;64834;52.516;10.528;2022-12-22T10:36:23;24.90;;;8.93;;
76107;SDS011;64834;52.516;10.528;2022-12-22T10:38:52;19.02;;;8.45;;
76107;SDS011;64834;52.516;10.528;2022-12-22T10:41:21;15.63;;;7.95;;
76107;SDS011;64834;52.516;10.528;2022-12-22T10:43:49;14.18;;;7.85;;
76107;SDS011;64834;52.516;10.528;2022-12-22T10:46:18;16.52;;;8.43;;
76107;SDS011;64834;52.516;10.528;2022-12-22T10:48:52;15.60;;;7.93;;
76107;SDS011;64834;52.516;10.528;2022-12-22T10:51:22;14.23;;;7.40;;
76107;SDS011;64834;52.516;10.528;2022-12-22T10:53:49;14.13;;;7.35;;
76107;SDS011;64834;52.516;10.528;2022-12-22T10:56:19;14.77;;;6.85;;
76107;SDS011;64834;52.516;10.528;2022-12-22T10:58:51;13.27;;;6.70;;
76107;SDS011;64834;52.516;10.528;2022-12-22T11:01:22;13.90;;;6.88;;
76107;SDS011;64834;52.516;10.528;2022-12-22T11:03:49;15.25;;;6.90;;
76107;SDS011;64834;52.516;10.528;2022-12-22T11:06:14;12.48;;;6.38;;
76107;SDS011;64834;52.516;10.528;2022-12-22T11:08:40;14.95;;;7.82;;
76107;SDS011;64834;52.516;10.528;2022-12-22T11:11:06;16.20;;;7.63;;
76107;SDS011;64834;52.516;10.528;2022-12-22T11:13:44;17.25;;;7.95;;
76107;SDS011;64834;52.516;10.528;2022-12-22T11:35:50;20.08;;;9.77;;
76107;SDS011;64834;52.516;10.528;2022-12-22T11:38:34;16.92;;;8.27;;
76107;SDS011;64834;52.516;10.528;2022-12-22T11:41:24;18.30;;;8.23;;
76107;SDS011;64834;52.516;10.528;2022-12-22T11:44:06;16.40;;;7.15;;
76107;SDS011;64834;52.516;10.528;2022-12-22T11:46:46;16.05;;;7.55;;
76107;SDS011;64834;52.516;10.528;2022-12-22T11:52:09;19.75;;;7.78;;
76107;SDS011;64834;52.516;10.528;2022-12-22T11:54:48;16.67;;;6.50;;
76107;SDS011;64834;52.516;10.528;2022-12-22T11:57:33;13.43;;;6.10;;
76107;SDS011;64834;52.516;10.528;2022-12-22T12:08:22;24.67;;;8.93;;
76107;SDS011;64834;52.516;10.528;2022-12-22T12:11:01;24.02;;;9.70;;
76107;SDS011;64834;52.516;10.528;2022-12-22T12:13:32;13.02;;;5.55;;
76107;SDS011;64834;52.516;10.528;2022-12-22T12:16:31;27.55;;;10.38;;
76107;SDS011;64834;52.516;10.528;2022-12-22T12:24:05;25.00;;;9.57;;
76107;SDS011;64834;52.516;10.528;2022-12-22T12:29:23;13.60;;;6.82;;
76107;SDS011;64834;52.516;10.528;2022-12-22T12:32:24;12.20;;;6.25;;
76107;SDS011;64834;52.516;10.528;2022-12-22T12:34:45;18.23;;;7.63;;
76107;SDS011;64834;52.516;10.528;2022-12-22T12:40:06;31.70;;;10.57;;
76107;SDS011;64834;52.516;10.528;2022-12-22T12:42:51;26.75;;;9.90;;
76107;SDS011;64834;52.516;10.528;2022-12-22T12:45:36;27.25;;;9.18;;
76107;SDS011;64834;52.516;10.528;2022-12-22T12:53:21;22.08;;;8.55;;
76107;SDS011;64834;52.516;10.528;2022-12-22T13:03:50;17.40;;;7.60;;
76107;SDS011;64834;52.516;10.528;2022-12-22T13:09:25;20.92;;;9.27;;
76107;SDS011;64834;52.516;10.528;2022-12-22T13:11:54;20.60;;;8.52;;
76107;SDS011;64834;52.516;10.528;2022-12-22T13:17:39;19.85;;;8.70;;
76107;SDS011;64834;52.516;10.528;2022-12-22T13:20:13;16.95;;;6.72;;
76107;SDS011;64834;52.516;10.528;2022-12-22T13:22:42;20.65;;;8.93;;
76107;SDS011;64834;52.516;10.528;2022-12-22T13:25:13;20.38;;;9.82;;
76107;SDS011;64834;52.516;10.528;2022-12-22T13:27:39;24.45;;;9.50;;
76107;SDS011;64834;52.516;10.528;2022-12-22T13:30:05;12.45;;;7.30;;
76107;SDS011;64834;52.516;10.528;2022-12-22T13:32:36;13.15;;;6.57;;
76107;SDS011;64834;52.516;10.528;2022-12-22T13:35:19;14.65;;;7.32;;
76107;SDS011;64834;52.516;10.528;2022-12-22T13:37:48;17.35;;;8.43;;
76107;SDS011;64834;52.516;10.528;2022-12-22T13:40:19;18.75;;;8.38;;
76107;SDS011;64834;52.516;10.528;2022-12-22T13:42:47;16.55;;;8.00;;
76107;SDS011;64834;52.516;10.528;2022-12-22T13:47:42;18.23;;;8.18;;
76107;SDS011;64834;52.516;10.528;2022-12-22T13:50:19;13.88;;;8.02;;
76107;SDS011;64834;52.516;10.528;2022-12-22T13:52:47;23.67;;;10.05;;
76107;SDS011;64834;52.516;10.528;2022-12-22T13:55:15;16.60;;;7.70;;
76107;SDS011;64834;52.516;10.528;2022-12-22T13:57:44;12.85;;;7.07;;
76107;SDS011;64834;52.516;10.528;2022-12-22T14:00:17;26.17;;;10.20;;
76107;SDS011;64834;52.516;10.528;2022-12-22T14:02:47;22.33;;;9.80;;
76107;SDS011;64834;52.516;10.528;2022-12-22T14:05:13;24.90;;;10.85;;
76107;SDS011;64834;52.516;10.528;2022-12-22T14:07:39;21.50;;;8.55;;
76107;SDS011;64834;52.516;10.528;2022-12-22T14:10:05;21.90;;;8.75;;
76107;SDS011;64834;52.516;10.528;2022-12-22T14:12:34;25.88;;;10.60;;
76107;SDS011;64834;52.516;10.528;2022-12-22T14:15:07;20.63;;;8.82;;
76107;SDS011;64834;52.516;10.528;2022-12-22T14:17:40;18.15;;;7.60;;
76107;SDS011;64834;52.516;10.528;2022-12-22T14:20:16;19.20;;;8.88;;
76107;SDS011;64834;52.516;10.528;2022-12-22T14:22:46;20.88;;;8.18;;
76107;SDS011;64834;52.516;10.528;2022-12-22T14:25:16;17.77;;;7.97;;
76107;SDS011;64834;52.516;10.528;2022-12-22T14:27:54;15.65;;;7.63;;
76107;SDS011;64834;52.516;10.528;2022-12-22T14:30:32;21.50;;;9.20;;
76107;SDS011;64834;52.516;10.528;2022-12-22T14:38:49;15.88;;;7.38;;
76107;SDS011;64834;52.516;10.528;2022-12-22T14:41:18;18.20;;;8.38;;
76107;SDS011;64834;52.516;10.528;2022-12-22T14:44:05;16.63;;;7.40;;
76107;SDS011;64834;52.516;10.528;2022-12-22T14:46:38;23.90;;;8.80;;
76107;SDS011;64834;52.516;10.528;2022-12-22T14:49:04;23.30;;;10.00;;
76107;SDS011;64834;52.516;10.528;2022-12-22T14:51:39;19.25;;;9.27;;
76107;SDS011;64834;52.516;10.528;2022-12-22T14:54:04;20.60;;;9.00;;
76107;SDS011;64834;52.516;10.528;2022-12-22T14:56:30;18.50;;;7.55;;
76107;SDS011;64834;52.516;10.528;2022-12-22T14:59:38;23.20;;;9.10;;
76107;SDS011;64834;52.516;10.528;2022-12-22T15:01:55;20.23;;;8.95;;
76107;SDS011;64834;52.516;10.528;2022-12-22T15:04:22;16.88;;;7.90;;
76107;SDS011;64834;52.516;10.528;2022-12-22T15:06:48;22.77;;;9.77;;
76107;SDS011;64834;52.516;10.528;2022-12-22T15:11:40;23.35;;;10.48;;
76107;SDS011;64834;52.516;10.528;2022-12-22T15:14:12;23.48;;;9.93;;
76107;SDS011;64834;52.516;10.528;2022-12-22T15:16:39;21.25;;;9.73;;
76107;SDS011;64834;52.516;10.528;2022-12-22T15:19:05;21.92;;;9.55;;
76107;SDS011;64834;52.516;10.528;2022-12-22T15:21:31;22.42;;;9.73;;
76107;SDS011;64834;52.516;10.528;2022-12-22T15:23:59;22.95;;;10.00;;
76107;SDS011;64834;52.516;10.528;2022-12-22T15:26:25;22.98;;;10.60;;
76107;SDS011;64834;52.516;10.528;2022-12-22T15:28:50;22.75;;;9.43;;
76107;SDS011;64834;52.516;10.528;2022-12-22T15:31:16;19.05;;;9.45;;
76107;SDS011;64834;52.516;10.528;2022-12-22T15:33:42;21.63;;;10.30;;
76107;SDS011;64834;52.516;10.528;2022-12-22T15:36:08;21.83;;;9.52;;
76107;SDS011;64834;52.516;10.528;2022-12-22T15:38:36;21.70;;;8.82;;
76107;SDS011;64834;52.516;10.528;2022-12-22T15:41:02;20.13;;;7.97;;
76107;SDS011;64834;52.516;10.528;2022-12-22T15:43:27;20.75;;;9.13;;
76107;SDS011;64834;52.516;10.528;2022-12-22T15:45:53;19.67;;;9.18;;
76107;SDS011;64834;52.516;10.528;2022-12-22T15:48:22;24.02;;;9.85;;
76107;SDS011;64834;52.516;10.528;2022-12-22T15:50:52;21.13;;;9.40;;
76107;SDS011;64834;52.516;10.528;2022-12-22T15:53:18;23.70;;;10.13;;
76107;SDS011;64834;52.516;10.528;2022-12-22T15:55:48;23.70;;;10.35;;
76107;SDS011;64834;52.516;10.528;2022-12-22T15:58:16;25.48;;;9.65;;
76107;SDS011;64834;52.516;10.528;2022-12-22T16:00:43;22.98;;;9.60;;
76107;SDS011;64834;52.516;10.528;2022-12-22T16:03:09;25.67;;;10.40;;
76107;SDS011;64834;52.516;10.528;2022-12-22T16:05:36;22.17;;;8.60;;
76107;SDS011;64834;52.516;10.528;2022-12-22T16:08:02;21.90;;;9.25;;
76107;SDS011;64834;52.516;10.528;2022-12-22T16:10:29;23.42;;;9.98;;
76107;SDS011;64834;52.516;10.528;2022-12-22T16:12:58;22.70;;;9.52;;
76107;SDS011;64834;52.516;10.528;2022-12-22T16:15:26;20.75;;;8.65;;
76107;SDS011;64834;52.516;10.528;2022-12-22T16:17:52;23.88;;;9.98;;
76107;SDS011;64834;52.516;10.528;2022-12-22T16:20:18;21.17;;;9.95;;